sensor_id;sensor_type;location;lat;lon;timestamp;P1;durP1;ratioP1;P2;durP2;ratioP2
44985;SDS011;30721;49.380;7.736;2023-05-15T00:00:54;3.20;;;2.72;;
44985;SDS011;30721;49.380;7.736;2023-05-15T00:03:20;3.72;;;2.90;;
44985;SDS011;30721;49.380;7.736;2023-05-15T00:05:45;6.88;;;4.50;;
44985;SDS011;30721;49.380;7.736;2023-05-15T00:08:11;4.22;;;3.83;;
44985;SDS011;30721;49.380;7.736;2023-05-15T00:10:36;5.13;;;3.67;;
44985;SDS011;30721;49.380;7.736;2023-05-15T00:13:02;3.40;;;3.08;;
44985;SDS011;30721;49.380;7.736;2023-05-15T00:15:27;3.17;;;2.88;;
44985;SDS011;30721;49.380;7.736;2023-05-15T00:17:53;4.25;;;2.80;;
44985;SDS011;30721;49.380;7.736;2023-05-15T00:20:18;3.08;;;2.80;;
44985;SDS011;30721;49.380;7.736;2023-05-15T00:22:43;3.10;;;2.80;;
44985;SDS011;30721;49.380;7.736;2023-05-15T00:25:09;3.15;;;2.80;;
44985;SDS011;30721;49.380;7.736;2023-05-15T00:27:59;2.55;;;2.35;;
44985;SDS011;30721;49.380;7.736;2023-05-15T00:30:29;3.85;;;2.83;;
44985;SDS011;30721;49.380;7.736;2023-05-15T00:32:54;3.08;;;2.78;;
44985;SDS011;30721;49.380;7.736;2023-05-15T00:35:20;3.78;;;3.10;;
44985;SDS011;30721;49.380;7.736;2023-05-15T00:37:45;2.90;;;2.70;;
44985;SDS011;30721;49.380;7.736;2023-05-15T00:40:11;2.85;;;2.65;;
44985;SDS011;30721;49.380;7.736;2023-05-15T00:42:42;3.08;;;2.65;;
44985;SDS011;30721;49.380;7.736;2023-05-15T00:45:08;3.03;;;2.42;;
44985;SDS011;30721;49.380;7.736;2023-05-15T00:47:34;4.05;;;3.08;;
44985;SDS011;30721;49.380;7.736;2023-05-15T00:50:00;4.55;;;3.17;;
44985;SDS011;30721;49.380;7.736;2023-05-15T00:52:26;3.72;;;3.17;;
44985;SDS011;30721;49.380;7.736;2023-05-15T00:54:52;4.78;;;2.90;;
44985;SDS011;30721;49.380;7.736;2023-05-15T00:57:17;3.40;;;2.80;;
44985;SDS011;30721;49.380;7.736;2023-05-15T00:59:44;4.53;;;2.58;;
44985;SDS011;30721;49.380;7.736;2023-05-15T01:02:09;4.65;;;3.05;;
44985;SDS011;30721;49.380;7.736;2023-05-15T01:04:36;2.45;;;2.25;;
44985;SDS011;30721;49.380;7.736;2023-05-15T01:07:01;2.78;;;2.45;;
44985;SDS011;30721;49.380;7.736;2023-05-15T01:09:27;2.20;;;2.00;;
44985;SDS011;30721;49.380;7.736;2023-05-15T01:11:54;3.35;;;2.92;;
44985;SDS011;30721;49.380;7.736;2023-05-15T01:14:21;2.60;;;2.40;;
44985;SDS011;30721;49.380;7.736;2023-05-15T01:16:47;2.95;;;2.40;;
44985;SDS011;30721;49.380;7.736;2023-05-15T01:19:12;2.60;;;2.40;;
44985;SDS011;30721;49.380;7.736;2023-05-15T01:21:47;4.63;;;2.83;;
44985;SDS011;30721;49.380;7.736;2023-05-15T01:35:26;3.63;;;2.40;;
44985;SDS011;30721;49.380;7.736;2023-05-15T01:38:06;3.45;;;3.00;;
44985;SDS011;30721;49.380;7.736;2023-05-15T01:40:37;4.43;;;3.33;;
44985;SDS011;30721;49.380;7.736;2023-05-15T01:43:06;3.15;;;2.88;;
44985;SDS011;30721;49.380;7.736;2023-05-15T01:45:33;4.93;;;2.90;;
44985;SDS011;30721;49.380;7.736;2023-05-15T01:47:59;3.20;;;2.85;;
44985;SDS011;30721;49.380;7.736;2023-05-15T01:50:25;3.42;;;3.10;;
44985;SDS011;30721;49.380;7.736;2023-05-15T01:52:55;3.25;;;2.83;;
44985;SDS011;30721;49.380;7.736;2023-05-15T01:55:22;3.30;;;3.00;;
44985;SDS011;30721;49.380;7.736;2023-05-15T01:57:49;3.88;;;2.50;;
44985;SDS011;30721;49.380;7.736;2023-05-15T02:00:15;3.08;;;2.58;;
44985;SDS011;30721;49.380;7.736;2023-05-15T02:02:41;3.35;;;2.50;;
44985;SDS011;30721;49.380;7.736;2023-05-15T02:05:07;2.85;;;2.65;;
44985;SDS011;30721;49.380;7.736;2023-05-15T02:07:33;5.57;;;3.03;;
44985;SDS011;30721;49.380;7.736;2023-05-15T02:09:59;2.60;;;2.40;;
44985;SDS011;30721;49.380;7.736;2023-05-15T02:12:26;3.28;;;2.60;;
44985;SDS011;30721;49.380;7.736;2023-05-15T02:14:52;2.33;;;2.13;;
44985;SDS011;30721;49.380;7.736;2023-05-15T02:17:19;3.00;;;2.60;;
44985;SDS011;30721;49.380;7.736;2023-05-15T02:19:47;3.33;;;2.83;;
44985;SDS011;30721;49.380;7.736;2023-05-15T02:22:12;2.88;;;2.30;;
44985;SDS011;30721;49.380;7.736;2023-05-15T02:24:37;2.20;;;2.00;;
44985;SDS011;30721;49.380;7.736;2023-05-15T02:27:05;2.70;;;2.50;;
44985;SDS011;30721;49.380;7.736;2023-05-15T02:29:35;3.20;;;2.90;;
44985;SDS011;30721;49.380;7.736;2023-05-15T02:32:09;6.75;;;4.38;;
44985;SDS011;30721;49.380;7.736;2023-05-15T02:34:47;5.78;;;3.60;;
44985;SDS011;30721;49.380;7.736;2023-05-15T02:37:19;4.90;;;4.40;;
44985;SDS011;30721;49.380;7.736;2023-05-15T02:39:45;5.35;;;4.25;;
44985;SDS011;30721;49.380;7.736;2023-05-15T02:42:13;5.03;;;3.50;;
44985;SDS011;30721;49.380;7.736;2023-05-15T02:44:40;5.10;;;3.58;;
44985;SDS011;30721;49.380;7.736;2023-05-15T02:47:06;4.22;;;3.22;;
44985;SDS011;30721;49.380;7.736;2023-05-15T02:49:32;4.57;;;3.13;;
44985;SDS011;30721;49.380;7.736;2023-05-15T02:51:58;5.40;;;3.50;;
44985;SDS011;30721;49.380;7.736;2023-05-15T02:54:23;4.25;;;3.08;;
44985;SDS011;30721;49.380;7.736;2023-05-15T02:56:49;4.13;;;2.97;;
44985;SDS011;30721;49.380;7.736;2023-05-15T02:59:15;3.70;;;3.15;;
44985;SDS011;30721;49.380;7.736;2023-05-15T03:01:43;5.28;;;4.32;;
44985;SDS011;30721;49.380;7.736;2023-05-15T03:04:10;7.05;;;4.80;;
44985;SDS011;30721;49.380;7.736;2023-05-15T03:06:38;6.00;;;4.35;;
44985;SDS011;30721;49.380;7.736;2023-05-15T03:09:03;5.43;;;4.38;;
44985;SDS011;30721;49.380;7.736;2023-05-15T03:11:28;4.15;;;3.30;;
44985;SDS011;30721;49.380;7.736;2023-05-15T03:13:54;4.43;;;3.28;;
44985;SDS011;30721;49.380;7.736;2023-05-15T03:16:19;4.35;;;3.63;;
44985;SDS011;30721;49.380;7.736;2023-05-15T03:18:44;4.57;;;3.55;;
44985;SDS011;30721;49.380;7.736;2023-05-15T03:21:10;3.22;;;2.92;;
44985;SDS011;30721;49.380;7.736;2023-05-15T03:23:35;4.70;;;3.00;;
44985;SDS011;30721;49.380;7.736;2023-05-15T03:26:01;3.00;;;2.70;;
44985;SDS011;30721;49.380;7.736;2023-05-15T03:28:26;2.88;;;2.30;;
44985;SDS011;30721;49.380;7.736;2023-05-15T03:30:52;2.70;;;2.45;;
44985;SDS011;30721;49.380;7.736;2023-05-15T03:33:18;3.25;;;2.30;;
44985;SDS011;30721;49.380;7.736;2023-05-15T03:35:43;3.35;;;2.30;;
44985;SDS011;30721;49.380;7.736;2023-05-15T03:38:08;2.70;;;2.10;;
44985;SDS011;30721;49.380;7.736;2023-05-15T03:40:34;2.60;;;2.38;;
44985;SDS011;30721;49.380;7.736;2023-05-15T03:42:59;5.30;;;2.50;;
44985;SDS011;30721;49.380;7.736;2023-05-15T03:45:24;2.95;;;2.53;;
44985;SDS011;30721;49.380;7.736;2023-05-15T03:47:50;2.67;;;2.42;;
44985;SDS011;30721;49.380;7.736;2023-05-15T03:50:15;2.83;;;2.50;;
44985;SDS011;30721;49.380;7.736;2023-05-15T03:52:41;3.10;;;2.80;;
44985;SDS011;30721;49.380;7.736;2023-05-15T03:55:06;3.38;;;2.58;;
44985;SDS011;30721;49.380;7.736;2023-05-15T03:57:32;4.07;;;2.78;;
44985;SDS011;30721;49.380;7.736;2023-05-15T03:59:59;2.95;;;2.65;;
44985;SDS011;30721;49.380;7.736;2023-05-15T04:02:29;3.38;;;2.70;;
44985;SDS011;30721;49.380;7.736;2023-05-15T04:04:54;2.72;;;2.38;;
44985;SDS011;30721;49.380;7.736;2023-05-15T04:07:20;2.75;;;2.50;;
44985;SDS011;30721;49.380;7.736;2023-05-15T04:09:45;3.35;;;2.58;;
44985;SDS011;30721;49.380;7.736;2023-05-15T04:12:10;3.53;;;2.70;;
44985;SDS011;30721;49.380;7.736;2023-05-15T04:14:36;2.65;;;2.45;;
44985;SDS011;30721;49.380;7.736;2023-05-15T04:17:01;2.70;;;2.45;;
44985;SDS011;30721;49.380;7.736;2023-05-15T04:19:26;3.30;;;2.72;;
44985;SDS011;30721;49.380;7.736;2023-05-15T04:21:52;3.85;;;3.00;;
44985;SDS011;30721;49.380;7.736;2023-05-15T04:24:17;2.67;;;2.42;;
44985;SDS011;30721;49.380;7.736;2023-05-15T04:26:42;3.50;;;3.10;;
44985;SDS011;30721;49.380;7.736;2023-05-15T04:29:08;3.20;;;3.00;;
44985;SDS011;30721;49.380;7.736;2023-05-15T04:31:34;3.35;;;3.05;;
44985;SDS011;30721;49.380;7.736;2023-05-15T04:33:59;3.20;;;2.90;;
44985;SDS011;30721;49.380;7.736;2023-05-15T04:36:25;3.00;;;2.67;;
44985;SDS011;30721;49.380;7.736;2023-05-15T04:38:50;3.22;;;2.85;;
44985;SDS011;30721;49.380;7.736;2023-05-15T04:41:15;3.67;;;2.97;;
44985;SDS011;30721;49.380;7.736;2023-05-15T04:43:41;2.90;;;2.60;;
44985;SDS011;30721;49.380;7.736;2023-05-15T04:46:07;3.10;;;2.80;;
44985;SDS011;30721;49.380;7.736;2023-05-15T04:48:32;3.50;;;3.20;;
44985;SDS011;30721;49.380;7.736;2023-05-15T04:50:57;3.67;;;2.78;;
44985;SDS011;30721;49.380;7.736;2023-05-15T04:53:23;4.45;;;3.10;;
44985;SDS011;30721;49.380;7.736;2023-05-15T04:55:48;3.53;;;2.42;;
44985;SDS011;30721;49.380;7.736;2023-05-15T04:58:15;3.22;;;2.67;;
44985;SDS011;30721;49.380;7.736;2023-05-15T05:00:41;3.15;;;2.67;;
44985;SDS011;30721;49.380;7.736;2023-05-15T05:03:06;3.22;;;2.72;;
44985;SDS011;30721;49.380;7.736;2023-05-15T05:05:31;3.13;;;2.83;;
44985;SDS011;30721;49.380;7.736;2023-05-15T05:07:57;3.38;;;3.05;;
44985;SDS011;30721;49.380;7.736;2023-05-15T05:10:22;3.08;;;2.50;;
44985;SDS011;30721;49.380;7.736;2023-05-15T05:12:48;3.20;;;2.80;;
44985;SDS011;30721;49.380;7.736;2023-05-15T05:15:13;3.15;;;2.85;;
44985;SDS011;30721;49.380;7.736;2023-05-15T05:17:38;4.15;;;2.88;;
44985;SDS011;30721;49.380;7.736;2023-05-15T05:20:04;3.65;;;3.10;;
44985;SDS011;30721;49.380;7.736;2023-05-15T05:22:32;2.50;;;2.30;;
44985;SDS011;30721;49.380;7.736;2023-05-15T05:24:58;2.67;;;2.47;;
44985;SDS011;30721;49.380;7.736;2023-05-15T05:27:23;2.70;;;2.50;;
44985;SDS011;30721;49.380;7.736;2023-05-15T05:29:48;2.90;;;2.60;;
44985;SDS011;30721;49.380;7.736;2023-05-15T05:32:14;2.88;;;2.53;;
44985;SDS011;30721;49.380;7.736;2023-05-15T05:34:39;2.97;;;2.67;;
44985;SDS011;30721;49.380;7.736;2023-05-15T05:37:05;3.22;;;2.92;;
44985;SDS011;30721;49.380;7.736;2023-05-15T05:39:30;3.17;;;2.88;;
44985;SDS011;30721;49.380;7.736;2023-05-15T05:41:55;2.90;;;2.70;;
44985;SDS011;30721;49.380;7.736;2023-05-15T05:44:21;3.38;;;2.95;;
44985;SDS011;30721;49.380;7.736;2023-05-15T05:46:46;2.92;;;2.72;;
44985;SDS011;30721;49.380;7.736;2023-05-15T05:49:12;3.55;;;2.90;;
44985;SDS011;30721;49.380;7.736;2023-05-15T05:51:37;5.50;;;3.47;;
44985;SDS011;30721;49.380;7.736;2023-05-15T05:54:03;3.70;;;3.40;;
44985;SDS011;30721;49.380;7.736;2023-05-15T05:56:28;3.58;;;3.28;;
44985;SDS011;30721;49.380;7.736;2023-05-15T05:58:53;3.85;;;3.45;;
44985;SDS011;30721;49.380;7.736;2023-05-15T06:01:20;4.47;;;3.70;;
44985;SDS011;30721;49.380;7.736;2023-05-15T06:03:46;3.92;;;3.63;;
44985;SDS011;30721;49.380;7.736;2023-05-15T06:06:11;3.67;;;3.30;;
44985;SDS011;30721;49.380;7.736;2023-05-15T06:08:37;4.30;;;3.25;;
44985;SDS011;30721;49.380;7.736;2023-05-15T06:11:02;4.07;;;3.67;;
44985;SDS011;30721;49.380;7.736;2023-05-15T06:13:28;4.35;;;3.50;;
44985;SDS011;30721;49.380;7.736;2023-05-15T06:15:53;5.65;;;3.75;;
44985;SDS011;30721;49.380;7.736;2023-05-15T06:18:18;3.33;;;3.03;;
44985;SDS011;30721;49.380;7.736;2023-05-15T06:20:44;4.72;;;3.35;;
44985;SDS011;30721;49.380;7.736;2023-05-15T06:23:10;3.90;;;3.53;;
44985;SDS011;30721;49.380;7.736;2023-05-15T06:25:36;3.42;;;3.15;;
44985;SDS011;30721;49.380;7.736;2023-05-15T06:28:01;4.03;;;3.60;;
44985;SDS011;30721;49.380;7.736;2023-05-15T06:30:27;3.90;;;3.60;;
44985;SDS011;30721;49.380;7.736;2023-05-15T06:32:52;4.72;;;4.10;;
44985;SDS011;30721;49.380;7.736;2023-05-15T06:35:17;4.43;;;3.88;;
44985;SDS011;30721;49.380;7.736;2023-05-15T06:37:43;4.05;;;3.65;;
44985;SDS011;30721;49.380;7.736;2023-05-15T06:40:08;4.47;;;3.90;;
44985;SDS011;30721;49.380;7.736;2023-05-15T06:42:34;3.63;;;3.33;;
44985;SDS011;30721;49.380;7.736;2023-05-15T06:44:59;3.58;;;3.28;;
44985;SDS011;30721;49.380;7.736;2023-05-15T06:47:25;3.70;;;3.40;;
44985;SDS011;30721;49.380;7.736;2023-05-15T06:49:52;3.63;;;3.33;;
44985;SDS011;30721;49.380;7.736;2023-05-15T06:52:18;3.53;;;3.22;;
44985;SDS011;30721;49.380;7.736;2023-05-15T06:54:44;4.70;;;4.10;;
44985;SDS011;30721;49.380;7.736;2023-05-15T06:57:09;3.88;;;3.58;;
44985;SDS011;30721;49.380;7.736;2023-05-15T06:59:35;4.30;;;3.95;;
44985;SDS011;30721;49.380;7.736;2023-05-15T07:02:01;4.00;;;3.70;;
44985;SDS011;30721;49.380;7.736;2023-05-15T07:04:27;4.68;;;3.75;;
44985;SDS011;30721;49.380;7.736;2023-05-15T07:06:53;4.30;;;3.70;;
44985;SDS011;30721;49.380;7.736;2023-05-15T07:09:18;4.47;;;4.07;;
44985;SDS011;30721;49.380;7.736;2023-05-15T07:11:44;4.20;;;3.80;;
44985;SDS011;30721;49.380;7.736;2023-05-15T07:14:09;4.70;;;4.30;;
44985;SDS011;30721;49.380;7.736;2023-05-15T07:16:34;4.45;;;4.07;;
44985;SDS011;30721;49.380;7.736;2023-05-15T07:19:00;4.80;;;4.40;;
44985;SDS011;30721;49.380;7.736;2023-05-15T07:21:25;4.05;;;3.70;;
44985;SDS011;30721;49.380;7.736;2023-05-15T07:23:51;4.75;;;4.35;;
44985;SDS011;30721;49.380;7.736;2023-05-15T07:26:16;4.85;;;4.10;;
44985;SDS011;30721;49.380;7.736;2023-05-15T07:28:41;4.45;;;4.05;;
44985;SDS011;30721;49.380;7.736;2023-05-15T07:31:07;4.75;;;4.30;;
44985;SDS011;30721;49.380;7.736;2023-05-15T07:33:32;4.00;;;3.70;;
44985;SDS011;30721;49.380;7.736;2023-05-15T07:35:57;4.93;;;4.20;;
44985;SDS011;30721;49.380;7.736;2023-05-15T07:38:23;4.13;;;3.70;;
44985;SDS011;30721;49.380;7.736;2023-05-15T07:40:48;4.35;;;3.50;;
44985;SDS011;30721;49.380;7.736;2023-05-15T07:43:14;4.28;;;3.97;;
44985;SDS011;30721;49.380;7.736;2023-05-15T07:45:39;4.28;;;3.95;;
44985;SDS011;30721;49.380;7.736;2023-05-15T07:48:14;4.40;;;4.00;;
44985;SDS011;30721;49.380;7.736;2023-05-15T07:50:40;4.05;;;3.75;;
44985;SDS011;30721;49.380;7.736;2023-05-15T07:53:06;4.50;;;4.10;;
44985;SDS011;30721;49.380;7.736;2023-05-15T07:55:31;5.38;;;3.85;;
44985;SDS011;30721;49.380;7.736;2023-05-15T07:57:57;4.03;;;3.35;;
44985;SDS011;30721;49.380;7.736;2023-05-15T08:00:23;3.60;;;3.30;;
44985;SDS011;30721;49.380;7.736;2023-05-15T08:02:48;4.07;;;3.78;;
44985;SDS011;30721;49.380;7.736;2023-05-15T08:05:13;3.50;;;3.22;;
44985;SDS011;30721;49.380;7.736;2023-05-15T08:07:39;4.32;;;3.53;;
44985;SDS011;30721;49.380;7.736;2023-05-15T08:10:05;4.80;;;4.40;;
44985;SDS011;30721;49.380;7.736;2023-05-15T08:12:31;3.58;;;3.28;;
44985;SDS011;30721;49.380;7.736;2023-05-15T08:14:57;3.85;;;3.58;;
44985;SDS011;30721;49.380;7.736;2023-05-15T08:17:23;3.88;;;3.58;;
44985;SDS011;30721;49.380;7.736;2023-05-15T08:19:48;4.13;;;3.83;;
44985;SDS011;30721;49.380;7.736;2023-05-15T08:22:14;3.60;;;3.33;;
44985;SDS011;30721;49.380;7.736;2023-05-15T08:24:40;3.80;;;3.38;;
44985;SDS011;30721;49.380;7.736;2023-05-15T08:27:05;3.33;;;3.10;;
44985;SDS011;30721;49.380;7.736;2023-05-15T08:29:32;4.18;;;3.60;;
44985;SDS011;30721;49.380;7.736;2023-05-15T08:31:57;3.60;;;3.25;;
44985;SDS011;30721;49.380;7.736;2023-05-15T08:34:23;3.92;;;3.63;;
44985;SDS011;30721;49.380;7.736;2023-05-15T08:36:49;4.25;;;3.95;;
44985;SDS011;30721;49.380;7.736;2023-05-15T08:39:14;3.90;;;3.60;;
44985;SDS011;30721;49.380;7.736;2023-05-15T08:41:44;3.90;;;3.33;;
44985;SDS011;30721;49.380;7.736;2023-05-15T08:44:12;3.58;;;3.30;;
44985;SDS011;30721;49.380;7.736;2023-05-15T08:46:38;3.50;;;3.30;;
44985;SDS011;30721;49.380;7.736;2023-05-15T08:49:06;3.72;;;3.42;;
44985;SDS011;30721;49.380;7.736;2023-05-15T08:51:37;3.20;;;2.80;;
44985;SDS011;30721;49.380;7.736;2023-05-15T08:54:03;3.60;;;3.30;;
44985;SDS011;30721;49.380;7.736;2023-05-15T08:56:28;3.75;;;3.45;;
44985;SDS011;30721;49.380;7.736;2023-05-15T08:58:54;3.15;;;2.95;;
44985;SDS011;30721;49.380;7.736;2023-05-15T09:01:19;3.53;;;3.25;;
44985;SDS011;30721;49.380;7.736;2023-05-15T09:03:45;3.88;;;3.58;;
44985;SDS011;30721;49.380;7.736;2023-05-15T09:06:11;3.78;;;3.20;;
44985;SDS011;30721;49.380;7.736;2023-05-15T09:08:36;3.83;;;3.53;;
44985;SDS011;30721;49.380;7.736;2023-05-15T09:11:02;3.63;;;3.33;;
44985;SDS011;30721;49.380;7.736;2023-05-15T09:13:28;5.70;;;4.28;;
44985;SDS011;30721;49.380;7.736;2023-05-15T09:15:55;3.83;;;3.53;;
44985;SDS011;30721;49.380;7.736;2023-05-15T09:18:20;4.05;;;3.75;;
44985;SDS011;30721;49.380;7.736;2023-05-15T09:20:46;4.18;;;3.75;;
44985;SDS011;30721;49.380;7.736;2023-05-15T09:23:21;4.97;;;4.00;;
44985;SDS011;30721;49.380;7.736;2023-05-15T09:25:48;4.45;;;4.05;;
44985;SDS011;30721;49.380;7.736;2023-05-15T09:28:33;4.28;;;3.92;;
44985;SDS011;30721;49.380;7.736;2023-05-15T09:31:03;4.72;;;4.10;;
44985;SDS011;30721;49.380;7.736;2023-05-15T09:36:02;4.00;;;3.70;;
44985;SDS011;30721;49.380;7.736;2023-05-15T09:38:28;3.53;;;3.22;;
44985;SDS011;30721;49.380;7.736;2023-05-15T09:41:06;4.03;;;3.60;;
44985;SDS011;30721;49.380;7.736;2023-05-15T09:43:32;3.75;;;3.45;;
44985;SDS011;30721;49.380;7.736;2023-05-15T09:46:02;3.22;;;2.92;;
44985;SDS011;30721;49.380;7.736;2023-05-15T09:48:27;3.42;;;2.88;;
44985;SDS011;30721;49.380;7.736;2023-05-15T09:50:53;3.40;;;3.20;;
44985;SDS011;30721;49.380;7.736;2023-05-15T09:53:20;3.63;;;3.15;;
44985;SDS011;30721;49.380;7.736;2023-05-15T09:55:45;3.58;;;2.70;;
44985;SDS011;30721;49.380;7.736;2023-05-15T09:58:12;2.47;;;2.30;;
44985;SDS011;30721;49.380;7.736;2023-05-15T10:00:39;2.60;;;2.40;;
44985;SDS011;30721;49.380;7.736;2023-05-15T10:03:06;3.20;;;2.88;;
44985;SDS011;30721;49.380;7.736;2023-05-15T10:05:32;2.88;;;2.67;;
44985;SDS011;30721;49.380;7.736;2023-05-15T10:07:58;4.50;;;4.07;;
44985;SDS011;30721;49.380;7.736;2023-05-15T10:10:24;3.50;;;3.20;;
44985;SDS011;30721;49.380;7.736;2023-05-15T10:12:51;3.30;;;3.10;;
44985;SDS011;30721;49.380;7.736;2023-05-15T10:15:17;3.38;;;3.08;;
44985;SDS011;30721;49.380;7.736;2023-05-15T10:17:44;3.03;;;2.72;;
44985;SDS011;30721;49.380;7.736;2023-05-15T10:20:11;3.00;;;2.80;;
44985;SDS011;30721;49.380;7.736;2023-05-15T10:22:38;3.55;;;3.28;;
44985;SDS011;30721;49.380;7.736;2023-05-15T10:25:15;3.40;;;3.20;;
44985;SDS011;30721;49.380;7.736;2023-05-15T10:28:01;4.03;;;2.70;;
44985;SDS011;30721;49.380;7.736;2023-05-15T10:30:27;3.42;;;3.13;;
44985;SDS011;30721;49.380;7.736;2023-05-15T10:32:53;3.10;;;2.90;;
44985;SDS011;30721;49.380;7.736;2023-05-15T10:35:19;3.30;;;3.10;;
44985;SDS011;30721;49.380;7.736;2023-05-15T10:37:46;4.53;;;3.53;;
44985;SDS011;30721;49.380;7.736;2023-05-15T10:40:13;4.10;;;3.75;;
44985;SDS011;30721;49.380;7.736;2023-05-15T10:42:43;4.53;;;3.80;;
44985;SDS011;30721;49.380;7.736;2023-05-15T10:45:11;4.00;;;3.60;;
44985;SDS011;30721;49.380;7.736;2023-05-15T10:47:37;4.07;;;3.78;;
44985;SDS011;30721;49.380;7.736;2023-05-15T10:50:04;4.50;;;4.10;;
44985;SDS011;30721;49.380;7.736;2023-05-15T10:52:34;4.22;;;3.92;;
44985;SDS011;30721;49.380;7.736;2023-05-15T10:55:00;5.10;;;4.70;;
44985;SDS011;30721;49.380;7.736;2023-05-15T10:57:27;5.22;;;4.82;;
44985;SDS011;30721;49.380;7.736;2023-05-15T10:59:54;5.22;;;4.72;;
44985;SDS011;30721;49.380;7.736;2023-05-15T11:02:20;5.15;;;4.70;;
44985;SDS011;30721;49.380;7.736;2023-05-15T11:04:47;4.40;;;4.00;;
44985;SDS011;30721;49.380;7.736;2023-05-15T11:07:17;4.65;;;4.20;;
44985;SDS011;30721;49.380;7.736;2023-05-15T11:09:43;5.25;;;3.90;;
44985;SDS011;30721;49.380;7.736;2023-05-15T11:12:09;5.20;;;4.63;;
44985;SDS011;30721;49.380;7.736;2023-05-15T11:14:42;4.13;;;3.83;;
44985;SDS011;30721;49.380;7.736;2023-05-15T11:17:30;5.22;;;4.72;;
44985;SDS011;30721;49.380;7.736;2023-05-15T11:19:57;5.10;;;4.70;;
44985;SDS011;30721;49.380;7.736;2023-05-15T11:22:41;5.20;;;4.70;;
44985;SDS011;30721;49.380;7.736;2023-05-15T11:25:08;5.30;;;4.85;;
44985;SDS011;30721;49.380;7.736;2023-05-15T11:30:01;4.90;;;4.43;;
44985;SDS011;30721;49.380;7.736;2023-05-15T11:33:09;5.63;;;5.13;;
44985;SDS011;30721;49.380;7.736;2023-05-15T11:35:29;4.40;;;4.00;;
44985;SDS011;30721;49.380;7.736;2023-05-15T11:37:57;4.82;;;4.43;;
44985;SDS011;30721;49.380;7.736;2023-05-15T11:43:03;5.32;;;3.67;;
44985;SDS011;30721;49.380;7.736;2023-05-15T11:45:41;4.75;;;4.00;;
44985;SDS011;30721;49.380;7.736;2023-05-15T11:48:10;5.22;;;4.28;;
44985;SDS011;30721;49.380;7.736;2023-05-15T11:50:37;6.43;;;5.63;;
44985;SDS011;30721;49.380;7.736;2023-05-15T11:53:04;8.02;;;6.53;;
44985;SDS011;30721;49.380;7.736;2023-05-15T11:55:31;8.45;;;7.50;;
44985;SDS011;30721;49.380;7.736;2023-05-15T11:57:57;8.65;;;7.72;;
44985;SDS011;30721;49.380;7.736;2023-05-15T12:00:23;9.57;;;8.48;;
44985;SDS011;30721;49.380;7.736;2023-05-15T12:02:48;8.25;;;7.45;;
44985;SDS011;30721;49.380;7.736;2023-05-15T12:05:14;7.82;;;6.97;;
44985;SDS011;30721;49.380;7.736;2023-05-15T12:07:43;6.97;;;6.28;;
44985;SDS011;30721;49.380;7.736;2023-05-15T12:10:09;7.22;;;5.55;;
44985;SDS011;30721;49.380;7.736;2023-05-15T12:12:37;5.47;;;4.97;;
44985;SDS011;30721;49.380;7.736;2023-05-15T12:15:03;5.47;;;5.07;;
44985;SDS011;30721;49.380;7.736;2023-05-15T12:17:30;5.35;;;4.45;;
44985;SDS011;30721;49.380;7.736;2023-05-15T12:19:57;5.93;;;4.35;;
44985;SDS011;30721;49.380;7.736;2023-05-15T12:22:23;4.32;;;3.92;;
44985;SDS011;30721;49.380;7.736;2023-05-15T12:24:49;5.78;;;3.50;;
44985;SDS011;30721;49.380;7.736;2023-05-15T12:27:14;4.03;;;3.72;;
44985;SDS011;30721;49.380;7.736;2023-05-15T12:29:40;3.53;;;3.22;;
44985;SDS011;30721;49.380;7.736;2023-05-15T12:32:06;3.50;;;3.20;;
44985;SDS011;30721;49.380;7.736;2023-05-15T12:34:32;4.05;;;3.78;;
44985;SDS011;30721;49.380;7.736;2023-05-15T12:36:58;3.83;;;3.50;;
44985;SDS011;30721;49.380;7.736;2023-05-15T12:39:24;4.32;;;3.67;;
44985;SDS011;30721;49.380;7.736;2023-05-15T12:41:50;3.35;;;3.15;;
44985;SDS011;30721;49.380;7.736;2023-05-15T12:44:18;3.70;;;3.40;;
44985;SDS011;30721;49.380;7.736;2023-05-15T12:46:44;2.85;;;2.65;;
44985;SDS011;30721;49.380;7.736;2023-05-15T12:49:10;3.20;;;3.00;;
44985;SDS011;30721;49.380;7.736;2023-05-15T12:51:42;3.25;;;2.97;;
44985;SDS011;30721;49.380;7.736;2023-05-15T12:54:17;3.35;;;3.05;;
44985;SDS011;30721;49.380;7.736;2023-05-15T12:56:43;3.42;;;3.22;;
44985;SDS011;30721;49.380;7.736;2023-05-15T12:59:11;3.70;;;3.40;;
44985;SDS011;30721;49.380;7.736;2023-05-15T13:01:36;3.50;;;3.20;;
44985;SDS011;30721;49.380;7.736;2023-05-15T13:04:02;4.10;;;3.80;;
44985;SDS011;30721;49.380;7.736;2023-05-15T13:06:27;4.15;;;3.85;;
44985;SDS011;30721;49.380;7.736;2023-05-15T13:08:53;4.53;;;3.80;;
44985;SDS011;30721;49.380;7.736;2023-05-15T13:11:20;3.78;;;3.55;;
44985;SDS011;30721;49.380;7.736;2023-05-15T13:13:49;5.53;;;4.20;;
44985;SDS011;30721;49.380;7.736;2023-05-15T13:16:35;4.18;;;3.75;;
44985;SDS011;30721;49.380;7.736;2023-05-15T13:19:00;4.07;;;3.67;;
44985;SDS011;30721;49.380;7.736;2023-05-15T13:21:26;4.28;;;3.97;;
44985;SDS011;30721;49.380;7.736;2023-05-15T13:23:51;4.20;;;3.90;;
44985;SDS011;30721;49.380;7.736;2023-05-15T13:26:16;4.18;;;3.78;;
44985;SDS011;30721;49.380;7.736;2023-05-15T13:28:42;3.80;;;3.50;;
44985;SDS011;30721;49.380;7.736;2023-05-15T13:31:07;4.20;;;3.80;;
44985;SDS011;30721;49.380;7.736;2023-05-15T13:33:33;4.38;;;3.90;;
44985;SDS011;30721;49.380;7.736;2023-05-15T13:35:59;4.70;;;4.35;;
44985;SDS011;30721;49.380;7.736;2023-05-15T13:38:26;5.20;;;4.80;;
44985;SDS011;30721;49.380;7.736;2023-05-15T13:40:51;6.10;;;5.32;;
44985;SDS011;30721;49.380;7.736;2023-05-15T13:43:16;5.40;;;5.00;;
44985;SDS011;30721;49.380;7.736;2023-05-15T13:45:42;6.07;;;5.57;;
44985;SDS011;30721;49.380;7.736;2023-05-15T13:48:07;6.35;;;5.55;;
44985;SDS011;30721;49.380;7.736;2023-05-15T13:50:33;7.03;;;6.32;;
44985;SDS011;30721;49.380;7.736;2023-05-15T13:52:58;7.85;;;6.47;;
44985;SDS011;30721;49.380;7.736;2023-05-15T13:55:23;6.95;;;6.32;;
44985;SDS011;30721;49.380;7.736;2023-05-15T13:57:51;9.10;;;7.20;;
44985;SDS011;30721;49.380;7.736;2023-05-15T14:00:17;6.65;;;6.03;;
44985;SDS011;30721;49.380;7.736;2023-05-15T14:02:43;7.35;;;6.65;;
44985;SDS011;30721;49.380;7.736;2023-05-15T14:05:09;8.15;;;7.35;;
44985;SDS011;30721;49.380;7.736;2023-05-15T14:07:36;8.20;;;7.40;;
44985;SDS011;30721;49.380;7.736;2023-05-15T14:10:01;7.90;;;7.18;;
44985;SDS011;30721;49.380;7.736;2023-05-15T14:12:28;8.40;;;7.60;;
44985;SDS011;30721;49.380;7.736;2023-05-15T14:14:54;8.57;;;7.50;;
44985;SDS011;30721;49.380;7.736;2023-05-15T14:17:21;7.80;;;7.00;;
44985;SDS011;30721;49.380;7.736;2023-05-15T14:19:47;9.50;;;8.18;;
44985;SDS011;30721;49.380;7.736;2023-05-15T14:22:13;9.40;;;8.38;;
44985;SDS011;30721;49.380;7.736;2023-05-15T14:24:38;9.10;;;7.53;;
44985;SDS011;30721;49.380;7.736;2023-05-15T14:27:04;8.85;;;7.95;;
44985;SDS011;30721;49.380;7.736;2023-05-15T14:29:29;10.30;;;7.80;;
44985;SDS011;30721;49.380;7.736;2023-05-15T14:31:55;8.95;;;7.97;;
44985;SDS011;30721;49.380;7.736;2023-05-15T14:34:21;10.10;;;9.10;;
44985;SDS011;30721;49.380;7.736;2023-05-15T14:36:47;9.98;;;8.98;;
44985;SDS011;30721;49.380;7.736;2023-05-15T14:39:13;9.30;;;8.40;;
44985;SDS011;30721;49.380;7.736;2023-05-15T14:41:40;9.70;;;8.32;;
44985;SDS011;30721;49.380;7.736;2023-05-15T14:44:05;8.55;;;7.55;;
44985;SDS011;30721;49.380;7.736;2023-05-15T14:46:31;8.02;;;7.22;;
44985;SDS011;30721;49.380;7.736;2023-05-15T14:48:56;8.45;;;7.25;;
44985;SDS011;30721;49.380;7.736;2023-05-15T14:51:21;8.73;;;7.82;;
44985;SDS011;30721;49.380;7.736;2023-05-15T14:53:47;7.30;;;6.55;;
44985;SDS011;30721;49.380;7.736;2023-05-15T14:56:12;7.43;;;6.72;;
44985;SDS011;30721;49.380;7.736;2023-05-15T14:58:38;7.90;;;6.47;;
44985;SDS011;30721;49.380;7.736;2023-05-15T15:01:03;6.85;;;6.15;;
44985;SDS011;30721;49.380;7.736;2023-05-15T15:03:29;6.40;;;5.80;;